sensor_id;sensor_type;location;lat;lon;timestamp;pressure;altitude;pressure_sealevel;temperature;humidity
41040;BME280;48586;50.122;18.972;2023-02-23T00:00:00;98602.09;;;2.23;63.32
41040;BME280;48586;50.122;18.972;2023-02-23T00:02:17;98600.59;;;2.20;63.00
41040;BME280;48586;50.122;18.972;2023-02-23T00:04:21;98597.34;;;2.18;63.40
41040;BME280;48586;50.122;18.972;2023-02-23T00:06:28;98606.72;;;2.21;63.37
41040;BME280;48586;50.122;18.972;2023-02-23T00:08:33;98609.50;;;2.19;63.33
41040;BME280;48586;50.122;18.972;2023-02-23T00:10:38;98607.22;;;2.16;63.46
41040;BME280;48586;50.122;18.972;2023-02-23T00:12:45;98613.47;;;2.15;63.61
41040;BME280;48586;50.122;18.972;2023-02-23T00:14:49;98610.03;;;2.15;63.40
41040;BME280;48586;50.122;18.972;2023-02-23T00:16:53;98609.41;;;2.13;63.41
41040;BME280;48586;50.122;18.972;2023-02-23T00:19:00;98610.22;;;2.13;63.56
41040;BME280;48586;50.122;18.972;2023-02-23T00:21:07;98608.59;;;2.12;63.87
41040;BME280;48586;50.122;18.972;2023-02-23T00:23:14;98606.28;;;2.09;63.63
41040;BME280;48586;50.122;18.972;2023-02-23T00:25:19;98606.28;;;2.09;63.81
41040;BME280;48586;50.122;18.972;2023-02-23T00:27:24;98602.84;;;2.09;63.62
41040;BME280;48586;50.122;18.972;2023-02-23T00:29:31;98603.81;;;2.08;63.69
41040;BME280;48586;50.122;18.972;2023-02-23T00:31:40;98599.56;;;2.07;63.67
41040;BME280;48586;50.122;18.972;2023-02-23T00:33:44;98609.44;;;2.05;63.81
41040;BME280;48586;50.122;18.972;2023-02-23T00:35:53;98607.97;;;2.02;63.68
41040;BME280;48586;50.122;18.972;2023-02-23T00:37:58;98604.72;;;2.00;63.73
41040;BME280;48586;50.122;18.972;2023-02-23T00:40:05;98604.72;;;2.00;63.73
41040;BME280;48586;50.122;18.972;2023-02-23T00:42:13;98605.69;;;1.99;63.79
41040;BME280;48586;50.122;18.972;2023-02-23T00:44:19;98603.44;;;1.96;63.95
41040;BME280;48586;50.122;18.972;2023-02-23T00:46:25;98604.88;;;1.98;63.71
41040;BME280;48586;50.122;18.972;2023-02-23T00:48:30;98599.00;;;1.96;63.97
41040;BME280;48586;50.122;18.972;2023-02-23T00:50:36;98604.44;;;1.95;63.82
41040;BME280;48586;50.122;18.972;2023-02-23T00:52:44;98608.22;;;1.92;63.96
41040;BME280;48586;50.122;18.972;2023-02-23T00:54:48;98604.91;;;1.90;63.85
41040;BME280;48586;50.122;18.972;2023-02-23T00:56:52;98612.00;;;1.90;64.02
41040;BME280;48586;50.122;18.972;2023-02-23T00:58:57;98605.28;;;1.87;63.72
41040;BME280;48586;50.122;18.972;2023-02-23T01:01:04;98607.09;;;1.87;64.02
41040;BME280;48586;50.122;18.972;2023-02-23T01:03:09;98600.38;;;1.84;64.15
41040;BME280;48586;50.122;18.972;2023-02-23T01:05:14;98602.19;;;1.84;64.16
41040;BME280;48586;50.122;18.972;2023-02-23T01:07:20;98599.75;;;1.82;64.43
41040;BME280;48586;50.122;18.972;2023-02-23T01:09:28;98601.53;;;1.82;64.27
41040;BME280;48586;50.122;18.972;2023-02-23T01:11:32;98600.91;;;1.80;64.27
41040;BME280;48586;50.122;18.972;2023-02-23T01:13:38;98595.66;;;1.80;64.08
41040;BME280;48586;50.122;18.972;2023-02-23T01:15:45;98596.97;;;1.76;64.39
41040;BME280;48586;50.122;18.972;2023-02-23T01:17:51;98607.16;;;1.79;64.16
41040;BME280;48586;50.122;18.972;2023-02-23T01:19:56;98589.72;;;1.78;64.31
41040;BME280;48586;50.122;18.972;2023-02-23T01:22:01;98589.72;;;1.78;64.07
41040;BME280;48586;50.122;18.972;2023-02-23T01:24:05;98591.38;;;1.79;64.24
41040;BME280;48586;50.122;18.972;2023-02-23T01:26:22;98594.97;;;1.78;64.15
41040;BME280;48586;50.122;18.972;2023-02-23T01:28:29;98588.09;;;1.77;64.31
41040;BME280;48586;50.122;18.972;2023-02-23T01:30:35;98589.09;;;1.76;64.25
41040;BME280;48586;50.122;18.972;2023-02-23T01:32:41;98590.09;;;1.75;63.99
41040;BME280;48586;50.122;18.972;2023-02-23T01:34:46;98585.19;;;1.71;64.19
41040;BME280;48586;50.122;18.972;2023-02-23T01:36:50;98584.19;;;1.72;64.29
41040;BME280;48586;50.122;18.972;2023-02-23T01:38:55;98586.81;;;1.72;64.14
41040;BME280;48586;50.122;18.972;2023-02-23T01:41:00;98582.38;;;1.73;64.18
41040;BME280;48586;50.122;18.972;2023-02-23T01:43:14;98578.94;;;1.72;64.22
41040;BME280;48586;50.122;18.972;2023-02-23T01:45:28;98574.69;;;1.71;64.01
41040;BME280;48586;50.122;18.972;2023-02-23T01:47:36;98575.34;;;1.73;64.00
41040;BME280;48586;50.122;18.972;2023-02-23T01:49:40;98573.06;;;1.70;63.86
41040;BME280;48586;50.122;18.972;2023-02-23T01:51:51;98562.88;;;1.67;63.82
41040;BME280;48586;50.122;18.972;2023-02-23T01:54:08;98562.88;;;1.67;64.04
41040;BME280;48586;50.122;18.972;2023-02-23T01:56:21;98560.44;;;1.66;63.84
41040;BME280;48586;50.122;18.972;2023-02-23T01:58:32;98563.41;;;1.63;64.03
41040;BME280;48586;50.122;18.972;2023-02-23T02:00:38;98566.03;;;1.63;63.87
41040;BME280;48586;50.122;18.972;2023-02-23T02:02:42;98561.31;;;1.58;63.62
41040;BME280;48586;50.122;18.972;2023-02-23T02:04:48;98552.13;;;1.54;63.91
41040;BME280;48586;50.122;18.972;2023-02-23T02:06:56;98556.56;;;1.54;64.25
41040;BME280;48586;50.122;18.972;2023-02-23T02:09:07;98559.38;;;1.52;64.18
41040;BME280;48586;50.122;18.972;2023-02-23T02:11:20;98558.72;;;1.50;63.96
41040;BME280;48586;50.122;18.972;2023-02-23T02:13:34;98549.41;;;1.47;64.12
41040;BME280;48586;50.122;18.972;2023-02-23T02:15:54;98556.44;;;1.47;64.22
41040;BME280;48586;50.122;18.972;2023-02-23T02:18:28;98550.38;;;1.46;63.83
41040;BME280;48586;50.122;18.972;2023-02-23T02:21:01;98545.13;;;1.46;63.75
41040;BME280;48586;50.122;18.972;2023-02-23T02:23:52;98542.66;;;1.45;63.86
41040;BME280;48586;50.122;18.972;2023-02-23T02:26:30;98539.22;;;1.44;64.15
41040;BME280;48586;50.122;18.972;2023-02-23T02:38:11;98537.97;;;1.32;63.97
41040;BME280;48586;50.122;18.972;2023-02-23T02:40:31;98537.50;;;1.29;64.30
41040;BME280;48586;50.122;18.972;2023-02-23T02:42:59;98537.84;;;1.26;64.10
41040;BME280;48586;50.122;18.972;2023-02-23T02:45:20;98533.09;;;1.21;64.03
41040;BME280;48586;50.122;18.972;2023-02-23T02:47:46;98543.97;;;1.18;64.22
41040;BME280;48586;50.122;18.972;2023-02-23T02:50:04;98540.84;;;1.14;64.22
41040;BME280;48586;50.122;18.972;2023-02-23T02:52:19;98539.56;;;1.10;64.21
41040;BME280;48586;50.122;18.972;2023-02-23T02:54:39;98538.25;;;1.06;64.16
41040;BME280;48586;50.122;18.972;2023-02-23T02:56:51;98537.59;;;1.04;64.55
41040;BME280;48586;50.122;18.972;2023-02-23T02:58:58;98536.63;;;1.05;64.70
41040;BME280;48586;50.122;18.972;2023-02-23T03:01:11;98534.97;;;1.04;64.41
41040;BME280;48586;50.122;18.972;2023-02-23T03:03:32;98531.38;;;1.05;64.61
41040;BME280;48586;50.122;18.972;2023-02-23T03:05:53;98534.16;;;1.04;64.68
41040;BME280;48586;50.122;18.972;2023-02-23T03:08:19;98539.78;;;1.01;64.54
41040;BME280;48586;50.122;18.972;2023-02-23T03:10:47;98536.66;;;0.97;64.91
41040;BME280;48586;50.122;18.972;2023-02-23T03:13:17;98541.25;;;0.95;64.96
41040;BME280;48586;50.122;18.972;2023-02-23T03:15:54;98532.75;;;0.93;65.37
41040;BME280;48586;50.122;18.972;2023-02-23T03:18:37;98525.69;;;0.93;65.59
41040;BME280;48586;50.122;18.972;2023-02-23T03:21:11;98531.41;;;0.97;65.64
41040;BME280;48586;50.122;18.972;2023-02-23T03:23:42;98533.22;;;0.96;65.46
41040;BME280;48586;50.122;18.972;2023-02-23T03:26:16;98523.88;;;0.94;65.53
41040;BME280;48586;50.122;18.972;2023-02-23T03:28:53;98531.75;;;0.94;65.40
41040;BME280;48586;50.122;18.972;2023-02-23T03:31:23;98531.56;;;0.95;65.58
41040;BME280;48586;50.122;18.972;2023-02-23T03:33:57;98534.03;;;0.97;65.63
41040;BME280;48586;50.122;18.972;2023-02-23T03:36:26;98532.41;;;0.96;65.92
41040;BME280;48586;50.122;18.972;2023-02-23T03:38:57;98534.03;;;0.97;65.57
41040;BME280;48586;50.122;18.972;2023-02-23T03:41:27;98531.22;;;0.98;65.63
41040;BME280;48586;50.122;18.972;2023-02-23T03:43:51;98531.56;;;0.95;65.30
41040;BME280;48586;50.122;18.972;2023-02-23T03:46:15;98532.75;;;0.93;65.47
41040;BME280;48586;50.122;18.972;2023-02-23T03:48:41;98534.38;;;0.94;65.86
41040;BME280;48586;50.122;18.972;2023-02-23T03:51:05;98531.56;;;0.95;65.45
41040;BME280;48586;50.122;18.972;2023-02-23T03:53:30;98533.84;;;0.98;65.83
41040;BME280;48586;50.122;18.972;2023-02-23T03:55:55;98534.03;;;0.97;65.83
41040;BME280;48586;50.122;18.972;2023-02-23T03:58:23;98539.78;;;1.01;65.63
41040;BME280;48586;50.122;18.972;2023-02-23T04:00:49;98539.78;;;1.01;65.72
41040;BME280;48586;50.122;18.972;2023-02-23T04:03:13;98536.97;;;1.02;65.37
41040;BME280;48586;50.122;18.972;2023-02-23T04:05:36;98535.16;;;1.03;65.68
41040;BME280;48586;50.122;18.972;2023-02-23T04:08:01;98534.97;;;1.04;65.55
41040;BME280;48586;50.122;18.972;2023-02-23T04:10:25;98534.53;;;1.01;65.18
41040;BME280;48586;50.122;18.972;2023-02-23T04:12:52;98534.34;;;1.02;65.54
41040;BME280;48586;50.122;18.972;2023-02-23T04:15:25;98528.91;;;1.04;65.57
41040;BME280;48586;50.122;18.972;2023-02-23T04:17:31;98528.75;;;1.05;65.17
41040;BME280;48586;50.122;18.972;2023-02-23T04:19:36;98525.47;;;1.03;65.43
41040;BME280;48586;50.122;18.972;2023-02-23T04:21:40;98534.34;;;1.02;65.34
41040;BME280;48586;50.122;18.972;2023-02-23T04:23:45;98525.66;;;1.02;65.47
41040;BME280;48586;50.122;18.972;2023-02-23T04:25:51;98521.56;;;0.99;65.25
41040;BME280;48586;50.122;18.972;2023-02-23T04:27:55;98527.16;;;0.96;65.38
41040;BME280;48586;50.122;18.972;2023-02-23T04:30:00;98518.81;;;0.92;65.40
41040;BME280;48586;50.122;18.972;2023-02-23T04:32:12;98518.34;;;0.89;65.79
41040;BME280;48586;50.122;18.972;2023-02-23T04:34:17;98527.81;;;0.90;65.66
41040;BME280;48586;50.122;18.972;2023-02-23T04:36:22;98519.97;;;0.90;65.40
41040;BME280;48586;50.122;18.972;2023-02-23T04:38:27;98520.13;;;0.88;65.37
41040;BME280;48586;50.122;18.972;2023-02-23T04:40:31;98520.78;;;0.90;65.69
41040;BME280;48586;50.122;18.972;2023-02-23T04:42:37;98512.09;;;0.90;65.64
41040;BME280;48586;50.122;18.972;2023-02-23T04:44:42;98514.72;;;0.90;65.47
41040;BME280;48586;50.122;18.972;2023-02-23T04:46:46;98517.50;;;0.88;65.57
41040;BME280;48586;50.122;18.972;2023-02-23T04:48:54;98514.22;;;0.86;65.46
41040;BME280;48586;50.122;18.972;2023-02-23T04:50:57;98522.09;;;0.86;66.09
41040;BME280;48586;50.122;18.972;2023-02-23T04:53:02;98520.66;;;0.84;65.66
41040;BME280;48586;50.122;18.972;2023-02-23T04:55:15;98519.16;;;0.81;65.71
41040;BME280;48586;50.122;18.972;2023-02-23T04:57:21;98513.78;;;0.83;65.67
41040;BME280;48586;50.122;18.972;2023-02-23T04:59:25;98517.22;;;0.83;65.83
41040;BME280;48586;50.122;18.972;2023-02-23T05:01:30;98518.84;;;0.84;66.03
41040;BME280;48586;50.122;18.972;2023-02-23T05:03:34;98519.66;;;0.85;65.84
41040;BME280;48586;50.122;18.972;2023-02-23T05:05:41;98521.66;;;0.83;65.91
41040;BME280;48586;50.122;18.972;2023-02-23T05:07:46;98525.06;;;0.83;65.70
41040;BME280;48586;50.122;18.972;2023-02-23T05:09:50;98520.78;;;0.82;65.76
41040;BME280;48586;50.122;18.972;2023-02-23T05:11:54;98518.19;;;0.82;65.54
41040;BME280;48586;50.122;18.972;2023-02-23T05:13:59;98519.34;;;0.80;66.00
41040;BME280;48586;50.122;18.972;2023-02-23T05:16:03;98522.31;;;0.77;65.90
41040;BME280;48586;50.122;18.972;2023-02-23T05:18:08;98519.03;;;0.75;66.05
41040;BME280;48586;50.122;18.972;2023-02-23T05:20:13;98521.00;;;0.72;66.10
41040;BME280;48586;50.122;18.972;2023-02-23T05:22:20;98511.31;;;0.73;66.42
41040;BME280;48586;50.122;18.972;2023-02-23T05:24:24;98511.81;;;0.77;66.25
41040;BME280;48586;50.122;18.972;2023-02-23T05:26:29;98508.19;;;0.78;66.05
41040;BME280;48586;50.122;18.972;2023-02-23T05:28:34;98513.63;;;0.76;66.00
41040;BME280;48586;50.122;18.972;2023-02-23T05:30:39;98518.22;;;0.74;66.07
41040;BME280;48586;50.122;18.972;2023-02-23T05:32:44;98520.00;;;0.73;66.07
41040;BME280;48586;50.122;18.972;2023-02-23T05:34:49;98520.66;;;0.76;66.12
41040;BME280;48586;50.122;18.972;2023-02-23T05:36:53;98515.75;;;0.72;66.12
41040;BME280;48586;50.122;18.972;2023-02-23T05:39:01;98518.69;;;0.78;66.16
41040;BME280;48586;50.122;18.972;2023-02-23T05:41:05;98521.97;;;0.80;66.04
41040;BME280;48586;50.122;18.972;2023-02-23T05:43:09;98520.78;;;0.82;66.24
41040;BME280;48586;50.122;18.972;2023-02-23T05:45:14;98520.66;;;0.84;65.70
41040;BME280;48586;50.122;18.972;2023-02-23T05:47:18;98526.53;;;0.86;65.95
41040;BME280;48586;50.122;18.972;2023-02-23T05:49:22;98518.50;;;0.87;65.70
41040;BME280;48586;50.122;18.972;2023-02-23T05:51:29;98523.75;;;0.87;65.67
41040;BME280;48586;50.122;18.972;2023-02-23T05:53:36;98519.81;;;0.91;65.71
41040;BME280;48586;50.122;18.972;2023-02-23T05:55:44;98525.88;;;0.92;65.83
41040;BME280;48586;50.122;18.972;2023-02-23T05:57:50;98525.06;;;0.91;65.95
41040;BME280;48586;50.122;18.972;2023-02-23T05:59:55;98528.81;;;0.89;65.71
41040;BME280;48586;50.122;18.972;2023-02-23T06:02:00;98531.44;;;0.89;65.57
41040;BME280;48586;50.122;18.972;2023-02-23T06:04:08;98527.19;;;0.88;65.89
41040;BME280;48586;50.122;18.972;2023-02-23T06:06:13;98528.00;;;0.88;65.75
41040;BME280;48586;50.122;18.972;2023-02-23T06:08:19;98535.53;;;0.91;65.75
41040;BME280;48586;50.122;18.972;2023-02-23T06:10:26;98533.72;;;0.92;65.67
41040;BME280;48586;50.122;18.972;2023-02-23T06:12:33;98533.56;;;0.93;65.60
41040;BME280;48586;50.122;18.972;2023-02-23T06:14:37;98535.69;;;0.90;65.59
41040;BME280;48586;50.122;18.972;2023-02-23T06:16:42;98533.41;;;0.87;65.61
41040;BME280;48586;50.122;18.972;2023-02-23T06:18:48;98536.03;;;0.87;65.81
41040;BME280;48586;50.122;18.972;2023-02-23T06:20:53;98533.41;;;0.87;65.93
41040;BME280;48586;50.122;18.972;2023-02-23T06:23:00;98544.25;;;0.84;65.87
41040;BME280;48586;50.122;18.972;2023-02-23T06:25:05;98540.63;;;0.85;66.00
41040;BME280;48586;50.122;18.972;2023-02-23T06:27:13;98538.50;;;0.88;66.13
41040;BME280;48586;50.122;18.972;2023-02-23T06:29:21;98541.59;;;0.92;66.25
41040;BME280;48586;50.122;18.972;2023-02-23T06:31:26;98537.66;;;0.96;66.19
41040;BME280;48586;50.122;18.972;2023-02-23T06:33:31;98540.09;;;0.97;65.82
41040;BME280;48586;50.122;18.972;2023-02-23T06:35:37;98538.28;;;0.98;65.59
41040;BME280;48586;50.122;18.972;2023-02-23T06:37:42;98542.53;;;0.99;66.03
41040;BME280;48586;50.122;18.972;2023-02-23T06:39:48;98546.66;;;1.02;65.80
41040;BME280;48586;50.122;18.972;2023-02-23T06:41:53;98547.28;;;1.04;65.65
41040;BME280;48586;50.122;18.972;2023-02-23T06:43:57;98544.31;;;1.07;65.76
41040;BME280;48586;50.122;18.972;2023-02-23T06:46:05;98548.88;;;1.13;65.58
41040;BME280;48586;50.122;18.972;2023-02-23T06:48:10;98543.97;;;1.18;65.52
41040;BME280;48586;50.122;18.972;2023-02-23T06:54:12;98548.28;;;1.34;65.24
41040;BME280;48586;50.122;18.972;2023-02-23T06:56:19;98543.72;;;1.36;65.43
41040;BME280;48586;50.122;18.972;2023-02-23T06:58:26;98548.44;;;1.40;65.57
41040;BME280;48586;50.122;18.972;2023-02-23T07:00:32;98551.53;;;1.44;65.00
41040;BME280;48586;50.122;18.972;2023-02-23T07:02:42;98552.03;;;1.47;65.02
41040;BME280;48586;50.122;18.972;2023-02-23T07:04:47;98556.91;;;1.51;64.73
41040;BME280;48586;50.122;18.972;2023-02-23T07:06:54;98555.56;;;1.55;64.98
41040;BME280;48586;50.122;18.972;2023-02-23T07:08:59;98549.47;;;1.62;64.54
41040;BME280;48586;50.122;18.972;2023-02-23T07:11:06;98555.00;;;1.67;64.46
41040;BME280;48586;50.122;18.972;2023-02-23T07:13:13;98556.09;;;1.73;64.25
41040;BME280;48586;50.122;18.972;2023-02-23T07:15:19;98551.34;;;1.77;63.97
41040;BME280;48586;50.122;18.972;2023-02-23T07:17:23;98548.56;;;1.78;63.96
41040;BME280;48586;50.122;18.972;2023-02-23T07:19:31;98548.38;;;1.80;63.86
41040;BME280;48586;50.122;18.972;2023-02-23T07:21:37;98545.41;;;1.83;63.92
41040;BME280;48586;50.122;18.972;2023-02-23T07:23:43;98547.50;;;1.87;63.86
41040;BME280;48586;50.122;18.972;2023-02-23T07:25:50;98551.03;;;1.94;64.07
41040;BME280;48586;50.122;18.972;2023-02-23T07:27:58;98551.34;;;2.00;63.46
41040;BME280;48586;50.122;18.972;2023-02-23T07:30:05;98544.09;;;2.02;63.00
41040;BME280;48586;50.122;18.972;2023-02-23T07:32:10;98538.03;;;2.01;63.12
41040;BME280;48586;50.122;18.972;2023-02-23T07:34:17;98542.28;;;2.02;63.27
41040;BME280;48586;50.122;18.972;2023-02-23T07:36:25;98547.19;;;2.05;63.62
41040;BME280;48586;50.122;18.972;2023-02-23T07:38:30;98550.78;;;2.12;63.37
41040;BME280;48586;50.122;18.972;2023-02-23T07:40:36;98538.53;;;2.19;63.21
41040;BME280;48586;50.122;18.972;2023-02-23T07:42:41;98543.72;;;2.28;63.14
41040;BME280;48586;50.122;18.972;2023-02-23T07:44:47;98543.00;;;2.34;63.07
41040;BME280;48586;50.122;18.972;2023-02-23T07:46:53;98547.38;;;2.41;63.01
41040;BME280;48586;50.122;18.972;2023-02-23T07:48:59;98538.78;;;2.47;62.50
41040;BME280;48586;50.122;18.972;2023-02-23T07:51:08;98530.63;;;2.57;62.45
41040;BME280;48586;50.122;18.972;2023-02-23T07:53:18;98533.00;;;2.67;63.17
41040;BME280;48586;50.122;18.972;2023-02-23T07:55:24;98531.91;;;2.76;62.42
41040;BME280;48586;50.122;18.972;2023-02-23T07:57:29;98527.38;;;2.85;62.15
41040;BME280;48586;50.122;18.972;2023-02-23T07:59:35;98537.00;;;2.92;61.91
41040;BME280;48586;50.122;18.972;2023-02-23T08:01:40;98537.72;;;3.01;61.94
41040;BME280;48586;50.122;18.972;2023-02-23T08:03:45;98520.22;;;3.08;61.73
41040;BME280;48586;50.122;18.972;2023-02-23T08:05:53;98529.66;;;3.17;61.39
41040;BME280;48586;50.122;18.972;2023-02-23T08:07:58;98536.81;;;3.23;60.79
41040;BME280;48586;50.122;18.972;2023-02-23T08:10:07;98528.34;;;3.28;60.76
41040;BME280;48586;50.122;18.972;2023-02-23T08:12:15;98531.44;;;3.32;60.11
41040;BME280;48586;50.122;18.972;2023-02-23T08:14:20;98533.06;;;3.33;60.30
41040;BME280;48586;50.122;18.972;2023-02-23T08:16:26;98527.63;;;3.34;60.14
41040;BME280;48586;50.122;18.972;2023-02-23T08:18:32;98530.88;;;3.36;59.69
41040;BME280;48586;50.122;18.972;2023-02-23T08:20:37;98535.59;;;3.41;59.84
41040;BME280;48586;50.122;18.972;2023-02-23T08:22:42;98530.59;;;3.46;60.03
41040;BME280;48586;50.122;18.972;2023-02-23T08:24:48;98536.13;;;3.51;59.72
41040;BME280;48586;50.122;18.972;2023-02-23T08:26:56;98536.75;;;3.53;59.43
41040;BME280;48586;50.122;18.972;2023-02-23T08:29:01;98536.84;;;3.60;59.64
41040;BME280;48586;50.122;18.972;2023-02-23T08:31:08;98531.00;;;3.64;59.44
41040;BME280;48586;50.122;18.972;2023-02-23T08:33:15;98531.47;;;3.68;59.45
41040;BME280;48586;50.122;18.972;2023-02-23T08:35:20;98529.06;;;3.73;59.56
41040;BME280;48586;50.122;18.972;2023-02-23T08:37:27;98535.59;;;3.77;58.84
41040;BME280;48586;50.122;18.972;2023-02-23T08:39:31;98528.13;;;3.81;58.98
41040;BME280;48586;50.122;18.972;2023-02-23T08:41:37;98528.19;;;3.87;58.90
41040;BME280;48586;50.122;18.972;2023-02-23T08:43:46;98519.34;;;3.95;59.27
41040;BME280;48586;50.122;18.972;2023-02-23T08:45:52;98521.22;;;4.01;59.20
41040;BME280;48586;50.122;18.972;2023-02-23T08:47:58;98519.38;;;4.02;58.78
41040;BME280;48586;50.122;18.972;2023-02-23T08:50:04;98515.00;;;4.09;59.42
41040;BME280;48586;50.122;18.972;2023-02-23T08:52:12;98504.13;;;4.18;59.18
41040;BME280;48586;50.122;18.972;2023-02-23T08:54:16;98515.78;;;4.31;59.19
41040;BME280;48586;50.122;18.972;2023-02-23T08:56:23;98525.00;;;4.41;59.09
41040;BME280;48586;50.122;18.972;2023-02-23T08:58:29;98527.31;;;4.51;58.62
41040;BME280;48586;50.122;18.972;2023-02-23T09:00:39;98521.31;;;4.64;58.46
41040;BME280;48586;50.122;18.972;2023-02-23T09:02:45;98516.88;;;4.71;58.21
41040;BME280;48586;50.122;18.972;2023-02-23T09:04:50;98523.44;;;4.82;57.76
41040;BME280;48586;50.122;18.972;2023-02-23T09:06:56;98526.53;;;4.92;56.95
41040;BME280;48586;50.122;18.972;2023-02-23T09:09:02;98523.34;;;5.03;56.88
41040;BME280;48586;50.122;18.972;2023-02-23T09:11:07;98519.91;;;5.09;55.89
41040;BME280;48586;50.122;18.972;2023-02-23T09:13:13;98509.41;;;5.16;56.24
41040;BME280;48586;50.122;18.972;2023-02-23T09:15:20;98512.69;;;5.24;56.29
41040;BME280;48586;50.122;18.972;2023-02-23T09:17:28;98512.09;;;5.29;55.84
41040;BME280;48586;50.122;18.972;2023-02-23T09:19:34;98518.41;;;5.35;56.12
41040;BME280;48586;50.122;18.972;2023-02-23T09:21:39;98519.25;;;5.42;56.46
41040;BME280;48586;50.122;18.972;2023-02-23T09:23:47;98515.78;;;5.48;56.20
41040;BME280;48586;50.122;18.972;2023-02-23T09:25:54;98514.44;;;5.59;56.25
41040;BME280;48586;50.122;18.972;2023-02-23T09:28:00;98514.06;;;5.68;56.34
41040;BME280;48586;50.122;18.972;2023-02-23T09:30:07;98514.47;;;5.79;55.79
41040;BME280;48586;50.122;18.972;2023-02-23T09:32:14;98511.03;;;5.85;55.32
41040;BME280;48586;50.122;18.972;2023-02-23T09:34:22;98512.28;;;5.89;55.36
41040;BME280;48586;50.122;18.972;2023-02-23T09:36:30;98512.47;;;5.94;55.12
41040;BME280;48586;50.122;18.972;2023-02-23T09:38:35;98505.56;;;5.99;55.04
41040;BME280;48586;50.122;18.972;2023-02-23T09:40:46;98495.59;;;6.02;54.33
41040;BME280;48586;50.122;18.972;2023-02-23T09:43:01;98507.41;;;6.12;54.75
41040;BME280;48586;50.122;18.972;2023-02-23T09:45:28;98499.03;;;6.22;54.62
41040;BME280;48586;50.122;18.972;2023-02-23T09:47:55;98503.13;;;6.31;54.33
41040;BME280;48586;50.122;18.972;2023-02-23T09:50:20;98506.78;;;6.43;54.19
41040;BME280;48586;50.122;18.972;2023-02-23T09:52:37;98510.00;;;6.52;53.78
41040;BME280;48586;50.122;18.972;2023-02-23T09:54:47;98502.88;;;6.59;53.84
41040;BME280;48586;50.122;18.972;2023-02-23T09:56:52;98501.88;;;6.67;54.16
41040;BME280;48586;50.122;18.972;2023-02-23T09:59:00;98499.81;;;6.75;53.23
41040;BME280;48586;50.122;18.972;2023-02-23T10:01:35;98497.34;;;6.81;52.89
41040;BME280;48586;50.122;18.972;2023-02-23T10:03:58;98505.06;;;6.89;52.89
41040;BME280;48586;50.122;18.972;2023-02-23T10:06:17;98496.91;;;6.97;53.45
41040;BME280;48586;50.122;18.972;2023-02-23T10:08:33;98502.56;;;7.07;53.03
41040;BME280;48586;50.122;18.972;2023-02-23T10:10:53;98496.63;;;7.18;52.80
41040;BME280;48586;50.122;18.972;2023-02-23T10:13:19;98496.56;;;7.25;52.14
41040;BME280;48586;50.122;18.972;2023-02-23T10:15:37;98491.25;;;7.32;52.38
41040;BME280;48586;50.122;18.972;2023-02-23T10:17:57;98501.00;;;7.38;52.04
41040;BME280;48586;50.122;18.972;2023-02-23T10:20:20;98495.50;;;7.39;51.88
41040;BME280;48586;50.122;18.972;2023-02-23T10:22:33;98491.59;;;7.42;51.90
41040;BME280;48586;50.122;18.972;2023-02-23T10:24:42;98494.47;;;7.47;51.56
41040;BME280;48586;50.122;18.972;2023-02-23T10:26:57;98492.59;;;7.54;52.07
41040;BME280;48586;50.122;18.972;2023-02-23T10:29:20;98497.66;;;7.62;51.73
41040;BME280;48586;50.122;18.972;2023-02-23T10:31:35;98488.63;;;7.70;51.73
41040;BME280;48586;50.122;18.972;2023-02-23T10:33:46;98493.69;;;7.78;51.60
41040;BME280;48586;50.122;18.972;2023-02-23T10:35:56;98483.03;;;7.85;51.41
41040;BME280;48586;50.122;18.972;2023-02-23T10:38:13;98485.19;;;7.94;51.39
41040;BME280;48586;50.122;18.972;2023-02-23T10:40:22;98476.16;;;8.02;50.92
41040;BME280;48586;50.122;18.972;2023-02-23T10:42:29;98475.47;;;8.13;51.34
41040;BME280;48586;50.122;18.972;2023-02-23T10:44:34;98478.00;;;8.27;51.24
41040;BME280;48586;50.122;18.972;2023-02-23T10:46:39;98468.75;;;8.36;50.56
41040;BME280;48586;50.122;18.972;2023-02-23T10:48:46;98473.16;;;8.42;50.07
41040;BME280;48586;50.122;18.972;2023-02-23T10:50:56;98470.69;;;8.47;49.76
41040;BME280;48586;50.122;18.972;2023-02-23T10:53:13;98467.38;;;8.52;49.56
41040;BME280;48586;50.122;18.972;2023-02-23T10:55:23;98465.66;;;8.57;49.52
41040;BME280;48586;50.122;18.972;2023-02-23T10:57:32;98463.41;;;8.61;49.30
41040;BME280;48586;50.122;18.972;2023-02-23T11:00:07;98457.41;;;8.65;48.93
41040;BME280;48586;50.122;18.972;2023-02-23T11:02:31;98461.84;;;8.71;48.84
41040;BME280;48586;50.122;18.972;2023-02-23T11:04:36;98454.00;;;8.76;48.72
41040;BME280;48586;50.122;18.972;2023-02-23T11:06:41;98451.72;;;8.80;48.76
41040;BME280;48586;50.122;18.972;2023-02-23T11:08:48;98447.59;;;8.84;48.61
41040;BME280;48586;50.122;18.972;2023-02-23T11:11:17;98438.75;;;8.90;48.60
41040;BME280;48586;50.122;18.972;2023-02-23T11:13:34;98435.44;;;8.95;48.47
41040;BME280;48586;50.122;18.972;2023-02-23T11:15:41;98432.09;;;8.99;48.29
41040;BME280;48586;50.122;18.972;2023-02-23T11:17:45;98432.28;;;9.05;48.21
41040;BME280;48586;50.122;18.972;2023-02-23T11:20:04;98430.34;;;9.12;48.40
41040;BME280;48586;50.122;18.972;2023-02-23T11:22:35;98429.06;;;9.14;47.91
41040;BME280;48586;50.122;18.972;2023-02-23T11:24:45;98431.28;;;9.17;47.53
41040;BME280;48586;50.122;18.972;2023-02-23T11:26:55;98426.34;;;9.21;47.77
41040;BME280;48586;50.122;18.972;2023-02-23T11:29:14;98423.81;;;9.26;47.82
41040;BME280;48586;50.122;18.972;2023-02-23T11:31:30;98416.22;;;9.30;47.64
41040;BME280;48586;50.122;18.972;2023-02-23T11:33:38;98421.66;;;9.35;47.36
41040;BME280;48586;50.122;18.972;2023-02-23T11:35:44;98420.16;;;9.39;47.89
41040;BME280;48586;50.122;18.972;2023-02-23T11:37:49;98415.78;;;9.44;47.76
41040;BME280;48586;50.122;18.972;2023-02-23T11:39:59;98416.72;;;9.50;47.63
41040;BME280;48586;50.122;18.972;2023-02-23T11:42:16;98413.84;;;9.52;47.27
41040;BME280;48586;50.122;18.972;2023-02-23T11:44:22;98411.56;;;9.55;47.26